Terminal Aerodrome Forecast
Issued by NWS Wilmington, OH

Home | Current Version | Previous Version | Text Only | Print | Product List | Glossary On
Versions: 1 2 3 4 5 6 7 8 9 10 11 12 13 14 15 16 17 18 19 20 21 22 23
931
FTUS41 KILN 240521
TAFCVG
TAF
KCVG 240521Z 2406/2512 32010KT 6SM -DZ BR OVC007
     FM240900 30008KT P6SM OVC007
     FM241700 29007KT P6SM OVC015
     FM242200 23004KT P6SM BKN025
     FM250000 17005KT P6SM SCT025 BKN120=

USA.gov is the U.S. government's official web portal to all federal, state and local government web resources and services.